Time;durP1;ratioP1;P1;durP2;ratioP2;P2;SDS_P1;SDS_P2;PMS_P1;PMS_P2;Temp;Humidity;BMP_temperature;BMP_pressure;BME280_temperature;BME280_humidity;BME280_pressure;Samples;Min_cycle;Max_cycle;Signal;HPM_P1;HPM_P2
2023/10/26 00:02:33;;;;;;;5.03;2.95;;;10.20;99.90;;;;;;6127699;23;20014;-92
2023/10/26 00:05:00;;;;;;;4.65;2.80;;;10.10;99.90;;;;;;6102880;23;20038;-92
2023/10/26 00:07:41;;;;;;;6.03;3.47;;;10.20;99.90;;;;;;6103481;23;20026;-92
2023/10/26 00:10:41;;;;;;;;;;;;;;;;;;;;;
2023/10/26 00:13:27;;;;;;;;;;;;;;;;;;;;;
2023/10/26 00:16:37;;;;;;;8.50;5.13;;;10.20;99.90;;;;;;6087716;23;20026;-92
2023/10/26 00:19:12;;;;;;;7.95;4.50;;;10.10;99.90;;;;;;6057569;23;20475;-92
2023/10/26 00:28:58;;;;;;;5.25;3.60;;;10.00;99.90;;;;;;5931984;24;20024;-92
2023/10/26 00:31:48;;;;;;;6.45;3.95;;;10.00;99.90;;;;;;5952763;24;20028;-93
2023/10/26 00:35:17;;;;;;;7.15;4.15;;;9.90;99.90;;;;;;5954167;24;20107;-93
2023/10/26 00:38:32;;;;;;;8.07;4.45;;;9.90;99.90;;;;;;5930904;24;20025;-92
2023/10/26 00:41:35;;;;;;;6.35;3.83;;;9.80;99.90;;;;;;5933513;24;20025;-91
2023/10/26 00:44:22;;;;;;;6.05;3.60;;;9.70;99.90;;;;;;6124821;23;20022;-92
2023/10/26 00:47:11;;;;;;;7.15;4.40;;;9.70;99.90;;;;;;6119628;23;20026;-90
2023/10/26 00:49:48;;;;;;;7.45;4.40;;;9.60;99.90;;;;;;6103805;23;20021;-91
2023/10/26 00:52:57;;;;;;;7.35;4.38;;;9.50;99.90;;;;;;6134287;23;20022;-90
2023/10/26 00:55:36;;;;;;;7.60;5.00;;;9.50;99.90;;;;;;6080318;23;20049;-91
2023/10/26 00:58:37;;;;;;;7.78;4.28;;;9.50;99.90;;;;;;6009437;23;20020;-91
2023/10/26 01:01:47;;;;;;;10.60;6.13;;;9.50;99.90;;;;;;6130179;23;20014;-91
2023/10/26 01:04:49;;;;;;;7.97;5.03;;;9.50;99.90;;;;;;6103599;23;20105;-92
2023/10/26 01:08:02;;;;;;;9.10;5.70;;;9.50;99.90;;;;;;6126698;23;20100;-92
2023/10/26 01:14:01;;;;;;;7.65;4.28;;;9.40;99.90;;;;;;6124628;23;20033;-91
2023/10/26 01:17:17;;;;;;;7.00;3.83;;;9.30;99.90;;;;;;6122370;23;20025;-92
2023/10/26 01:20:53;;;;;;;6.30;4.15;;;9.40;99.90;;;;;;6117651;23;20026;-92
2023/10/26 01:24:33;;;;;;;8.35;5.00;;;9.30;99.90;;;;;;6125648;23;20030;-92
2023/10/26 01:27:53;;;;;;;7.85;4.40;;;9.30;99.90;;;;;;6126247;23;20093;-92
2023/10/26 01:30:40;;;;;;;8.35;4.35;;;9.30;99.90;;;;;;6103406;23;20028;-92
2023/10/26 01:33:22;;;;;;;6.97;4.40;;;9.20;99.90;;;;;;6110018;23;20014;-91
2023/10/26 01:36:17;;;;;;;7.93;4.78;;;9.20;99.90;;;;;;6126515;23;20040;-91
2023/10/26 01:39:28;;;;;;;;;;;;;;;;;;;;;
2023/10/26 01:42:52;;;;;;;6.70;4.03;;;9.20;99.90;;;;;;6124323;23;20092;-91
2023/10/26 01:45:54;;;;;;;7.15;4.40;;;9.30;99.90;;;;;;6122195;23;20029;-91
2023/10/26 01:48:31;;;;;;;7.38;4.40;;;9.30;99.90;;;;;;6128378;23;20021;-92
2023/10/26 01:51:03;;;;;;;6.88;2.85;;;9.30;99.90;;;;;;6128200;23;20026;-91
2023/10/26 01:53:40;;;;;;;6.25;3.10;;;9.40;99.90;;;;;;6081335;23;20017;-91
2023/10/26 01:59:36;;;;;;;8.60;4.93;;;9.40;99.90;;;;;;6112725;23;20022;-91
2023/10/26 02:02:17;;;;;;;;;;;9.50;99.90;;;;;;6130939;23;20041;-91
2023/10/26 02:04:44;;;;;;;9.60;5.90;;;9.50;99.90;;;;;;6103267;23;19917;-91
2023/10/26 02:07:33;;;;;;;11.30;6.10;;;9.50;99.90;;;;;;6127197;23;20097;-92
2023/10/26 02:10:09;;;;;;;9.15;6.30;;;9.60;99.90;;;;;;6127857;23;20030;-92
2023/10/26 02:13:05;;;;;;;9.93;5.72;;;9.70;99.90;;;;;;6124137;23;20110;-92
2023/10/26 02:15:39;;;;;;;13.15;7.93;;;9.70;99.90;;;;;;6081116;23;20074;-91
2023/10/26 02:18:12;;;;;;;10.57;6.93;;;9.70;99.90;;;;;;6104220;23;20032;-92
2023/10/26 02:21:10;;;;;;;;;;;;;;;;;;;;;
2023/10/26 02:24:01;;;;;;;11.43;6.88;;;9.80;99.90;;;;;;6151293;23;20033;-93
2023/10/26 02:27:01;;;;;;;11.60;7.50;;;9.80;99.90;;;;;;6103737;23;20025;-91
2023/10/26 02:30:02;;;;;;;11.13;6.95;;;9.80;99.90;;;;;;6115484;23;20105;-91
2023/10/26 02:32:46;;;;;;;;;;;;;;;;;;;;;
2023/10/26 02:35:48;;;;;;;9.90;6.43;;;9.80;99.90;;;;;;6126885;23;20017;-92
2023/10/26 02:38:47;;;;;;;9.65;6.07;;;9.80;99.90;;;;;;6098438;23;20021;-91
2023/10/26 02:41:35;;;;;;;10.50;6.10;;;9.80;99.90;;;;;;6131662;23;20022;-92
2023/10/26 02:44:20;;;;;;;10.57;6.03;;;9.70;99.90;;;;;;6131603;23;20018;-91
2023/10/26 02:46:53;;;;;;;9.75;6.13;;;9.70;99.90;;;;;;6127860;23;20108;-92
2023/10/26 02:49:26;;;;;;;10.98;6.38;;;9.70;99.90;;;;;;6103662;23;20053;-91
2023/10/26 02:52:03;;;;;;;7.28;4.28;;;9.70;99.90;;;;;;6104799;23;20022;-91
2023/10/26 02:54:57;;;;;;;;;;;;;;;;;;;;;
2023/10/26 02:57:59;;;;;;;7.35;4.50;;;9.60;99.90;;;;;;6128528;23;20031;-91
2023/10/26 03:00:36;;;;;;;8.77;5.55;;;9.60;99.90;;;;;;6103933;23;20092;-91
2023/10/26 03:03:11;;;;;;;7.97;5.15;;;9.50;99.90;;;;;;6060431;23;20097;-91
2023/10/26 03:06:12;;;;;;;11.57;5.53;;;9.50;99.90;;;;;;6122134;23;20088;-90
2023/10/26 03:09:04;;;;;;;7.65;4.10;;;9.50;99.90;;;;;;6144854;23;20024;-91
2023/10/26 03:11:39;;;;;;;9.57;6.03;;;9.50;99.90;;;;;;6102807;23;20018;-91
2023/10/26 03:14:30;;;;;;;13.07;6.75;;;9.50;99.90;;;;;;6125933;23;20467;-92
2023/10/26 03:17:09;;;;;;;10.55;6.28;;;9.50;99.90;;;;;;6127208;23;20029;-94
2023/10/26 03:20:05;;;;;;;8.65;5.10;;;9.50;99.90;;;;;;6133524;23;20018;-93
2023/10/26 03:23:11;;;;;;;8.95;5.13;;;9.60;99.90;;;;;;6131902;23;20017;-92
2023/10/26 03:25:51;;;;;;;9.48;5.10;;;9.60;99.90;;;;;;6082522;23;20104;-91
2023/10/26 03:28:38;;;;;;;9.52;5.43;;;9.60;99.90;;;;;;6104963;23;20021;-91
2023/10/26 03:31:37;;;;;;;9.90;5.95;;;9.60;99.90;;;;;;6023412;23;20031;-91
2023/10/26 03:34:38;;;;;;;9.27;4.90;;;9.60;99.90;;;;;;6076022;23;20033;-94
2023/10/26 03:37:19;;;;;;;;;;;;;;;;;;;;;
2023/10/26 03:39:57;;;;;;;7.78;3.83;;;9.60;99.90;;;;;;6151526;23;20060;-92
2023/10/26 03:42:39;;;;;;;;;;;;;;;;;;;;;
2023/10/26 03:45:30;;;;;;;;;;;;;;;;;;;;;
2023/10/26 03:48:58;;;;;;;6.40;4.00;;;9.60;99.90;;;;;;6149461;23;20072;-94
2023/10/26 03:51:53;;;;;;;;;;;;;;;;;;;;;
2023/10/26 03:54:40;;;;;;;6.13;3.05;;;9.50;99.90;;;;;;6128000;23;20089;-94
2023/10/26 03:58:19;;;;;;;;;;;;;;;;;;;;;
2023/10/26 04:01:00;;;;;;;6.10;3.20;;;9.50;99.90;;;;;;6028481;23;20362;-94
2023/10/26 04:07:52;;;;;;;;;;;;;;;;;;;;;
2023/10/26 04:10:56;;;;;;;5.13;3.15;;;9.50;99.90;;;;;;6128167;23;20406;-93
2023/10/26 04:13:58;;;;;;;4.70;2.50;;;9.50;99.90;;;;;;6069159;23;20018;-91
2023/10/26 04:17:09;;;;;;;;;;;;;;;;;;;;;
2023/10/26 04:20:32;;;;;;;4.18;2.08;;;9.50;99.90;;;;;;6127033;23;20322;-93
2023/10/26 04:23:55;;;;;;;3.90;1.52;;;9.50;99.90;;;;;;6078301;23;20033;-92
2023/10/26 04:26:57;;;;;;;5.60;3.08;;;9.40;99.90;;;;;;6127853;23;20032;-91
2023/10/26 04:29:46;;;;;;;5.55;2.95;;;9.40;99.90;;;;;;6096643;23;20022;-94
2023/10/26 04:32:33;;;;;;;5.60;2.80;;;9.30;99.90;;;;;;6121985;23;20385;-92
2023/10/26 04:35:21;;;;;;;;;;;9.30;99.90;;;;;;6101493;23;20026;-92
2023/10/26 04:38:05;;;;;;;6.45;3.33;;;9.30;99.90;;;;;;6077700;23;19933;-92
2023/10/26 04:40:39;;;;;;;5.78;3.08;;;9.20;99.90;;;;;;6098658;23;20029;-91
2023/10/26 04:43:27;;;;;;;5.93;3.25;;;9.30;99.90;;;;;;6097441;23;20033;-92
2023/10/26 04:46:21;;;;;;;8.43;5.57;;;9.30;99.90;;;;;;6075240;23;20083;-91
2023/10/26 04:49:01;;;;;;;10.82;6.13;;;9.30;99.90;;;;;;6051240;23;20018;-92
2023/10/26 04:51:39;;;;;;;8.05;4.82;;;9.30;99.90;;;;;;6121421;23;20030;-92
2023/10/26 04:54:24;;;;;;;9.75;5.20;;;9.30;99.90;;;;;;6100509;23;21961;-92
2023/10/26 04:57:05;;;;;;;7.70;4.60;;;9.30;99.90;;;;;;6121406;23;20052;-92
2023/10/26 05:00:04;;;;;;;;;;;;;;;;;;;;;
2023/10/26 05:02:49;;;;;;;7.90;4.15;;;9.30;99.90;;;;;;6096444;23;20073;-92
2023/10/26 05:05:36;;;;;;;7.50;3.55;;;9.30;99.90;;;;;;6099390;23;20026;-92
2023/10/26 05:08:49;;;;;;;6.50;3.13;;;9.30;99.90;;;;;;6100072;23;20441;-91
2023/10/26 05:11:38;;;;;;;8.80;4.45;;;9.30;99.90;;;;;;6094951;23;20048;-91
2023/10/26 05:14:42;;;;;;;7.18;3.90;;;9.30;99.90;;;;;;6120577;23;20102;-89
2023/10/26 05:17:48;;;;;;;12.45;5.90;;;9.30;99.90;;;;;;6120991;23;20045;-90
2023/10/26 05:20:38;;;;;;;11.38;5.80;;;9.30;99.90;;;;;;6121079;23;20026;-91
2023/10/26 05:23:14;;;;;;;9.35;5.32;;;9.30;99.90;;;;;;6072927;23;20026;-90
2023/10/26 05:26:07;;;;;;;10.35;5.47;;;9.30;99.90;;;;;;6077226;23;20026;-90
2023/10/26 05:28:54;;;;;;;6.88;3.75;;;9.30;99.90;;;;;;6096851;23;20094;-91
2023/10/26 05:31:36;;;;;;;6.88;3.55;;;9.30;99.90;;;;;;6078635;23;20026;-91
2023/10/26 05:34:07;;;;;;;5.82;3.15;;;9.30;99.90;;;;;;6072946;23;20035;-90
2023/10/26 05:36:48;;;;;;;6.10;3.58;;;9.30;99.90;;;;;;6064578;23;20022;-93
2023/10/26 05:39:31;;;;;;;4.93;2.63;;;9.20;99.90;;;;;;6096712;23;20105;-91
2023/10/26 05:42:06;;;;;;;6.03;2.80;;;9.30;99.90;;;;;;6096782;23;20023;-91
2023/10/26 05:44:42;;;;;;;6.20;2.67;;;9.30;99.90;;;;;;6052964;23;20023;-91
2023/10/26 05:47:23;;;;;;;5.63;3.00;;;9.20;99.90;;;;;;6098725;23;20409;-92
2023/10/26 05:50:04;;;;;;;5.47;2.58;;;9.20;99.90;;;;;;6096241;23;20026;-92
2023/10/26 05:52:55;;;;;;;4.22;2.15;;;9.20;99.90;;;;;;6097143;23;20074;-93
2023/10/26 05:56:10;;;;;;;6.30;2.58;;;9.20;99.90;;;;;;6097417;23;20101;-92
2023/10/26 05:58:52;;;;;;;4.20;2.03;;;9.20;99.90;;;;;;6099553;23;20468;-92
2023/10/26 06:01:41;;;;;;;6.72;2.63;;;9.10;99.90;;;;;;6098616;23;20018;-88
2023/10/26 06:04:47;;;;;;;4.05;1.92;;;9.10;99.90;;;;;;6100233;23;20018;-87
2023/10/26 06:14:53;;;;;;;4.23;1.97;;;9.20;99.90;;;;;;6069886;23;20026;-88
2023/10/26 06:17:27;;;;;;;4.30;2.03;;;9.20;99.90;;;;;;6096112;23;20014;-88
2023/10/26 06:19:55;;;;;;;3.83;1.75;;;9.10;99.90;;;;;;6072491;23;20069;-88
2023/10/26 06:22:43;;;;;;;4.95;2.15;;;9.10;99.90;;;;;;6096107;23;20030;-88
2023/10/26 06:25:28;;;;;;;4.20;1.75;;;9.10;99.90;;;;;;6120188;23;20026;-87
2023/10/26 06:28:06;;;;;;;4.30;2.00;;;9.00;99.90;;;;;;6119398;23;20065;-88
2023/10/26 06:35:15;;;;;;;3.67;1.75;;;8.90;99.90;;;;;;5939541;23;20028;-88
2023/10/26 06:39:02;;;;;;;4.82;2.42;;;8.80;99.90;;;;;;5984668;23;20024;-86
2023/10/26 06:42:05;;;;;;;5.00;1.90;;;8.80;99.90;;;;;;5992896;23;20107;-86
2023/10/26 06:45:17;;;;;;;4.22;2.28;;;8.80;99.90;;;;;;6081230;23;20034;-87
2023/10/26 06:47:45;;;;;;;5.07;2.28;;;9.00;99.90;;;;;;6122069;23;20018;-87
2023/10/26 06:50:38;;;;;;;5.40;1.77;;;9.10;99.90;;;;;;6102284;23;20447;-87
2023/10/26 06:53:11;;;;;;;3.90;2.05;;;9.10;99.90;;;;;;6098275;23;20082;-87
2023/10/26 06:55:59;;;;;;;4.20;1.67;;;9.10;99.90;;;;;;6099887;23;20065;-88
2023/10/26 06:58:35;;;;;;;5.28;2.35;;;9.20;99.90;;;;;;6099023;23;20101;-88
2023/10/26 07:01:07;;;;;;;5.20;2.47;;;9.20;99.90;;;;;;6121797;23;20038;-86
2023/10/26 07:03:52;;;;;;;7.72;3.55;;;9.30;99.90;;;;;;6122131;23;20022;-86
2023/10/26 07:06:28;;;;;;;5.78;3.00;;;9.30;99.90;;;;;;6097988;23;20077;-86
2023/10/26 07:08:56;;;;;;;7.97;3.38;;;9.30;99.90;;;;;;6073220;23;20060;-86
2023/10/26 07:11:32;;;;;;;6.78;2.92;;;9.40;99.90;;;;;;6121509;23;20128;-81
2023/10/26 07:14:00;;;;;;;13.90;3.08;;;9.40;99.90;;;;;;6074472;23;20023;-86
2023/10/26 07:17:23;;;;;;;;;;;;;;;;;;;;;
2023/10/26 07:20:05;;;;;;;4.53;1.98;;;9.50;99.90;;;;;;6122725;23;20461;-83
2023/10/26 07:22:32;;;;;;;7.78;2.72;;;9.50;99.90;;;;;;6097887;23;20018;-82
2023/10/26 07:25:02;;;;;;;9.02;3.25;;;9.60;99.90;;;;;;6121819;23;20033;-89
2023/10/26 07:27:59;;;;;;;4.82;2.20;;;9.60;99.90;;;;;;6075632;23;20057;-89
2023/10/26 07:31:38;;;;;;;5.07;2.40;;;9.70;99.90;;;;;;6098088;23;20093;-88
2023/10/26 07:34:19;;;;;;;6.15;2.00;;;9.70;99.90;;;;;;6096412;23;20093;-87
2023/10/26 07:36:46;;;;;;;4.25;1.63;;;9.80;99.90;;;;;;6121295;23;20018;-83
2023/10/26 07:39:58;;;;;;;3.85;2.13;;;9.80;99.90;;;;;;6073172;23;20038;-89
2023/10/26 07:43:01;;;;;;;3.83;1.75;;;9.80;99.90;;;;;;6088674;23;20023;-87
2023/10/26 07:45:28;;;;;;;4.15;2.03;;;9.90;99.90;;;;;;6072997;23;20529;-86
2023/10/26 07:47:58;;;;;;;8.43;3.53;;;9.90;99.90;;;;;;6096864;23;20022;-86
2023/10/26 07:50:28;;;;;;;5.20;2.72;;;9.90;99.90;;;;;;6074717;23;20022;-87
2023/10/26 07:52:56;;;;;;;5.65;3.22;;;9.90;99.90;;;;;;6026645;23;20101;-86
2023/10/26 07:55:23;;;;;;;10.93;4.38;;;10.00;99.90;;;;;;6096432;23;20123;-83
2023/10/26 07:57:50;;;;;;;6.75;3.55;;;10.00;99.90;;;;;;6048670;23;20448;-84
2023/10/26 08:00:17;;;;;;;6.45;3.50;;;9.90;99.90;;;;;;6025782;23;20042;-85
2023/10/26 08:02:44;;;;;;;6.63;2.72;;;9.90;99.90;;;;;;6096598;23;20106;-83
2023/10/26 08:05:15;;;;;;;4.90;2.83;;;10.00;99.90;;;;;;6048911;23;20082;-83
2023/10/26 08:07:42;;;;;;;5.90;2.53;;;10.00;99.90;;;;;;6072657;23;20405;-83
2023/10/26 08:10:10;;;;;;;7.50;2.28;;;10.10;99.90;;;;;;6072497;23;20034;-85
2023/10/26 08:12:37;;;;;;;6.03;2.50;;;10.20;99.90;;;;;;6096003;23;20026;-83
2023/10/26 08:15:04;;;;;;;8.10;2.10;;;10.20;99.90;;;;;;6048279;23;20082;-81
2023/10/26 08:17:51;;;;;;;3.90;1.90;;;10.20;99.90;;;;;;6099909;23;20018;-84
2023/10/26 08:20:19;;;;;;;4.30;1.88;;;10.20;99.90;;;;;;6095905;23;20084;-82
2023/10/26 08:22:49;;;;;;;5.82;2.30;;;10.30;99.90;;;;;;6096205;23;20413;-83
2023/10/26 08:25:17;;;;;;;5.85;2.70;;;10.30;99.90;;;;;;6048261;23;20026;-83
2023/10/26 08:27:51;;;;;;;4.00;1.83;;;10.30;99.90;;;;;;6074738;23;20126;-84
2023/10/26 08:30:21;;;;;;;4.85;2.30;;;10.30;99.90;;;;;;6120451;23;20050;-83
2023/10/26 08:32:53;;;;;;;5.55;2.92;;;10.40;99.90;;;;;;6095526;23;20022;-81
2023/10/26 08:35:22;;;;;;;6.40;3.75;;;10.50;99.90;;;;;;6119775;23;20030;-81
2023/10/26 08:37:49;;;;;;;5.10;2.75;;;10.50;99.90;;;;;;6097783;23;20110;-86
2023/10/26 08:40:16;;;;;;;5.93;2.97;;;10.60;99.90;;;;;;6095653;23;20019;-83
2023/10/26 08:42:44;;;;;;;5.18;2.90;;;10.60;99.90;;;;;;6095963;23;20114;-88
2023/10/26 08:45:20;;;;;;;6.32;2.97;;;10.70;99.90;;;;;;6119746;23;20097;-82
2023/10/26 08:47:50;;;;;;;7.47;3.80;;;10.80;99.90;;;;;;6095838;23;20022;-83
2023/10/26 08:50:23;;;;;;;8.70;3.95;;;10.70;99.90;;;;;;6095784;23;20022;-83
2023/10/26 08:52:54;;;;;;;8.02;4.57;;;10.70;99.90;;;;;;6095426;23;20475;-83
2023/10/26 08:55:35;;;;;;;8.07;4.60;;;10.70;99.90;;;;;;6119335;23;20023;-87
2023/10/26 08:58:03;;;;;;;7.50;4.43;;;10.60;99.90;;;;;;6095693;23;20342;-83
2023/10/26 09:00:31;;;;;;;9.23;5.63;;;10.60;99.90;;;;;;6119240;23;20014;-83
2023/10/26 09:03:01;;;;;;;8.45;4.65;;;10.60;99.90;;;;;;6096354;23;20042;-83
2023/10/26 09:05:33;;;;;;;9.18;5.00;;;10.60;99.90;;;;;;6072381;23;20101;-83
2023/10/26 09:08:17;;;;;;;10.07;5.70;;;10.60;99.90;;;;;;6049510;23;20398;-83
2023/10/26 09:10:56;;;;;;;11.82;6.60;;;10.60;99.90;;;;;;6096744;23;20101;-88
2023/10/26 09:13:34;;;;;;;8.93;5.75;;;10.60;99.90;;;;;;6119861;23;20101;-82
2023/10/26 09:16:03;;;;;;;6.90;4.00;;;10.60;99.90;;;;;;6095681;23;20046;-83
2023/10/26 09:18:41;;;;;;;;;;;;;;;;;;;;;
2023/10/26 09:21:22;;;;;;;9.30;5.28;;;10.60;99.90;;;;;;6106190;23;20022;-85
2023/10/26 09:23:52;;;;;;;8.13;4.72;;;10.50;99.90;;;;;;6121752;23;20463;-81
2023/10/26 09:26:20;;;;;;;9.70;5.68;;;10.60;99.90;;;;;;6119329;23;20435;-81
2023/10/26 09:28:52;;;;;;;9.40;5.70;;;10.60;99.90;;;;;;6096878;23;20073;-81
2023/10/26 09:31:20;;;;;;;10.90;6.78;;;10.60;99.90;;;;;;6095152;23;20022;-82
2023/10/26 09:37:05;;;;;;;8.55;5.82;;;10.70;99.90;;;;;;6084401;23;20032;-82
2023/10/26 09:39:34;;;;;;;8.75;5.22;;;10.70;99.90;;;;;;6119825;23;20066;-82
2023/10/26 09:42:02;;;;;;;9.07;4.80;;;10.80;99.90;;;;;;6095565;23;20563;-83
2023/10/26 09:44:32;;;;;;;9.50;4.65;;;10.90;99.90;;;;;;6120499;23;20065;-88
2023/10/26 09:47:04;;;;;;;9.27;5.30;;;11.00;99.90;;;;;;6096294;23;20393;-82
2023/10/26 09:49:33;;;;;;;9.52;5.20;;;11.00;99.90;;;;;;6071867;23;20097;-87
2023/10/26 09:52:02;;;;;;;8.88;4.30;;;10.90;99.90;;;;;;6119304;23;20029;-82
2023/10/26 09:54:37;;;;;;;7.57;4.72;;;10.90;99.90;;;;;;6094938;23;20109;-83
2023/10/26 09:57:11;;;;;;;7.85;4.18;;;10.90;99.90;;;;;;6119476;23;20027;-87
2023/10/26 09:59:38;;;;;;;8.65;4.65;;;10.90;99.90;;;;;;6095730;23;20030;-83
2023/10/26 10:02:18;;;;;;;8.63;3.70;;;11.00;99.90;;;;;;6095032;23;20027;-82
2023/10/26 10:04:46;;;;;;;7.55;4.10;;;11.10;99.90;;;;;;6119317;23;20409;-83
2023/10/26 10:07:17;;;;;;;8.27;4.10;;;11.10;99.90;;;;;;6047769;23;20023;-81
2023/10/26 10:10:05;;;;;;;7.70;4.05;;;11.20;99.90;;;;;;6049834;23;20027;-84
2023/10/26 10:12:34;;;;;;;7.47;4.05;;;11.30;99.90;;;;;;6121114;23;20023;-86
2023/10/26 10:15:47;;;;;;;6.55;3.70;;;11.40;99.90;;;;;;6098187;23;20029;-91
2023/10/26 10:18:15;;;;;;;9.00;5.00;;;11.40;99.80;;;;;;6121557;23;20034;-83
2023/10/26 10:20:42;;;;;;;11.70;7.00;;;11.20;99.80;;;;;;6096618;23;20077;-81
2023/10/26 10:23:28;;;;;;;13.25;7.28;;;11.20;99.80;;;;;;6096609;23;20023;-85
2023/10/26 10:25:58;;;;;;;10.70;6.15;;;11.10;99.80;;;;;;6097060;23;20026;-82
2023/10/26 10:28:41;;;;;;;8.40;4.80;;;11.00;99.90;;;;;;6100347;23;20050;-81
2023/10/26 10:31:10;;;;;;;7.97;4.35;;;11.00;99.90;;;;;;6025919;23;20045;-80
2023/10/26 10:33:40;;;;;;;7.97;4.53;;;11.10;99.90;;;;;;6073149;23;20046;-81
2023/10/26 10:36:10;;;;;;;12.60;4.50;;;11.10;99.90;;;;;;6097209;23;20133;-80
2023/10/26 10:38:38;;;;;;;8.57;3.80;;;11.10;99.90;;;;;;6121031;23;20019;-84
2023/10/26 10:41:09;;;;;;;8.48;4.55;;;11.00;99.90;;;;;;6073839;23;20018;-81
2023/10/26 10:43:38;;;;;;;8.63;4.70;;;11.10;99.90;;;;;;6120765;23;20023;-81
2023/10/26 10:46:23;;;;;;;6.90;4.07;;;11.10;99.90;;;;;;6096689;23;20027;-81
2023/10/26 10:49:08;;;;;;;8.13;4.50;;;11.30;99.90;;;;;;6121128;23;20033;-79
2023/10/26 10:51:43;;;;;;;8.32;3.95;;;11.30;99.80;;;;;;6096473;23;20034;-79
2023/10/26 10:54:18;;;;;;;7.63;4.18;;;11.40;99.80;;;;;;6096698;23;20032;-79
2023/10/26 10:56:48;;;;;;;7.97;5.03;;;11.50;99.80;;;;;;6074290;23;20018;-80
2023/10/26 10:59:26;;;;;;;10.50;5.03;;;11.60;99.60;;;;;;6120682;23;20027;-79
2023/10/26 11:02:13;;;;;;;8.35;5.03;;;11.80;99.40;;;;;;6072846;23;20441;-79
2023/10/26 11:04:57;;;;;;;9.63;5.55;;;11.90;99.30;;;;;;6122306;23;20022;-92
2023/10/26 11:07:47;;;;;;;8.15;4.45;;;11.90;99.30;;;;;;6077990;23;20464;-89
2023/10/26 11:10:14;;;;;;;10.57;6.07;;;12.00;99.40;;;;;;6122145;23;20140;-89
2023/10/26 11:12:52;;;;;;;9.98;5.68;;;12.00;99.30;;;;;;6073607;23;20026;-92
2023/10/26 11:15:34;;;;;;;7.65;4.15;;;12.00;99.10;;;;;;6051855;23;20054;-89
2023/10/26 11:18:02;;;;;;;9.43;4.90;;;12.00;99.30;;;;;;6099048;23;20023;-90
2023/10/26 11:20:45;;;;;;;7.43;4.15;;;12.00;99.30;;;;;;6099511;23;20022;-87
2023/10/26 11:23:16;;;;;;;7.20;3.88;;;12.00;99.30;;;;;;6097718;23;20065;-82
2023/10/26 11:25:44;;;;;;;9.20;5.05;;;12.00;99.30;;;;;;6096407;23;20019;-81
2023/10/26 11:28:11;;;;;;;8.43;4.57;;;12.00;99.30;;;;;;6072837;23;20062;-82
2023/10/26 11:30:47;;;;;;;9.80;5.50;;;12.00;99.30;;;;;;6120766;23;20020;-82
2023/10/26 11:33:32;;;;;;;8.32;4.63;;;12.10;99.30;;;;;;6096415;23;20030;-82
2023/10/26 11:35:59;;;;;;;7.85;4.68;;;12.00;99.50;;;;;;6120628;23;20022;-81
2023/10/26 11:38:27;;;;;;;7.15;3.90;;;12.00;99.30;;;;;;6096361;23;20029;-81
2023/10/26 11:40:55;;;;;;;6.95;3.63;;;12.00;99.30;;;;;;6096416;23;20293;-82
2023/10/26 11:43:36;;;;;;;8.02;4.05;;;12.00;99.40;;;;;;6095846;23;20090;-82
2023/10/26 11:46:03;;;;;;;7.38;4.50;;;12.00;99.30;;;;;;6096470;23;20039;-82
2023/10/26 11:48:32;;;;;;;7.88;4.28;;;12.00;99.40;;;;;;6095950;23;20023;-82
2023/10/26 11:51:07;;;;;;;7.43;4.15;;;11.90;99.40;;;;;;6096027;23;20029;-85
2023/10/26 11:53:44;;;;;;;9.10;3.92;;;11.90;99.40;;;;;;6096382;23;20046;-83
2023/10/26 11:56:24;;;;;;;8.18;4.07;;;11.90;99.50;;;;;;6096698;23;20096;-86
2023/10/26 11:58:54;;;;;;;8.63;4.85;;;11.80;99.50;;;;;;6120228;23;20093;-86
2023/10/26 12:01:21;;;;;;;8.43;4.47;;;11.80;99.50;;;;;;6096076;23;20038;-85
2023/10/26 12:07:09;;;;;;;8.93;4.63;;;11.70;99.50;;;;;;6090853;23;20022;-87
2023/10/26 12:09:50;;;;;;;9.48;4.63;;;11.70;99.60;;;;;;6085780;23;20345;-86
2023/10/26 12:12:41;;;;;;;7.63;4.22;;;11.70;99.60;;;;;;6096763;23;20023;-88
2023/10/26 12:15:31;;;;;;;8.93;4.22;;;11.60;99.60;;;;;;6095943;23;20022;-88
2023/10/26 12:18:02;;;;;;;8.38;4.85;;;11.60;99.60;;;;;;6096808;23;20101;-83
2023/10/26 12:20:30;;;;;;;7.07;3.83;;;11.60;99.50;;;;;;6120272;23;20101;-83
2023/10/26 12:22:58;;;;;;;6.97;3.80;;;11.60;99.50;;;;;;6095745;23;20106;-83
2023/10/26 12:25:25;;;;;;;8.00;3.97;;;11.60;99.50;;;;;;6095720;23;20018;-84
2023/10/26 12:27:54;;;;;;;6.30;3.75;;;11.60;99.60;;;;;;6096346;23;20476;-84
2023/10/26 12:30:49;;;;;;;6.90;3.60;;;11.60;99.60;;;;;;6119618;23;20026;-82
2023/10/26 12:33:23;;;;;;;8.20;3.70;;;11.70;99.60;;;;;;6095976;23;20030;-87
2023/10/26 12:35:53;;;;;;;6.05;3.90;;;11.70;99.50;;;;;;6095235;23;20026;-82
2023/10/26 12:38:21;;;;;;;8.00;4.32;;;11.70;99.60;;;;;;6095848;23;20053;-83
2023/10/26 12:40:49;;;;;;;6.93;3.83;;;11.70;99.60;;;;;;6095718;23;20022;-84
2023/10/26 12:43:19;;;;;;;6.80;3.63;;;11.70;99.50;;;;;;6095557;23;20030;-82
2023/10/26 12:45:49;;;;;;;6.05;3.10;;;11.70;99.50;;;;;;6120424;23;20484;-83
2023/10/26 12:48:44;;;;;;;6.63;3.38;;;11.70;99.60;;;;;;6098976;23;20014;-87
2023/10/26 12:51:47;;;;;;;;;;;;;;;;;;;;;
2023/10/26 12:54:20;;;;;;;6.05;3.38;;;11.70;99.60;;;;;;6120189;23;20097;-85
2023/10/26 12:56:48;;;;;;;7.15;3.70;;;11.70;99.60;;;;;;6095596;23;20031;-83
2023/10/26 12:59:18;;;;;;;7.10;3.30;;;11.80;99.60;;;;;;6095373;23;20089;-85
2023/10/26 13:01:45;;;;;;;6.28;3.60;;;11.80;99.50;;;;;;6047904;23;20023;-85
2023/10/26 13:04:12;;;;;;;7.35;3.90;;;11.90;99.40;;;;;;6072677;23;20101;-84
2023/10/26 13:06:40;;;;;;;7.65;3.88;;;11.90;99.40;;;;;;6096153;23;20364;-84
2023/10/26 13:09:08;;;;;;;7.57;4.10;;;12.00;99.40;;;;;;6095458;23;20022;-82
2023/10/26 13:11:35;;;;;;;7.80;4.13;;;12.00;99.30;;;;;;6095873;23;20026;-82
2023/10/26 13:14:12;;;;;;;;;;;;;;;;;;;;;
2023/10/26 13:17:00;;;;;;;6.20;3.13;;;12.20;99.30;;;;;;6077743;23;20014;-86
2023/10/26 13:19:27;;;;;;;7.47;4.57;;;12.20;99.20;;;;;;6120613;23;20026;-82
2023/10/26 13:21:55;;;;;;;7.05;3.85;;;12.20;99.10;;;;;;6095688;23;20383;-83
2023/10/26 13:24:22;;;;;;;6.82;4.03;;;12.30;99.10;;;;;;6095352;23;20022;-82
2023/10/26 13:26:50;;;;;;;6.40;3.20;;;12.30;99.10;;;;;;6071765;23;20418;-83
2023/10/26 13:29:17;;;;;;;6.68;3.72;;;12.30;99.00;;;;;;6095252;23;20052;-83
2023/10/26 13:31:47;;;;;;;6.95;3.83;;;12.30;99.00;;;;;;6072980;23;20026;-83
2023/10/26 13:34:14;;;;;;;6.70;3.95;;;12.30;99.00;;;;;;6095200;23;20345;-83
2023/10/26 13:36:42;;;;;;;7.90;4.05;;;12.30;99.00;;;;;;6071780;23;20022;-83
2023/10/26 13:39:10;;;;;;;8.13;4.70;;;12.20;98.90;;;;;;6119724;23;20042;-82
2023/10/26 13:41:37;;;;;;;7.28;4.10;;;12.20;99.00;;;;;;6071185;23;20345;-83
2023/10/26 13:44:04;;;;;;;7.05;3.58;;;12.10;99.00;;;;;;6095276;23;20050;-83
2023/10/26 13:46:41;;;;;;;7.38;4.05;;;12.10;99.10;;;;;;6119453;23;20110;-83
2023/10/26 13:49:10;;;;;;;6.60;3.10;;;12.10;99.10;;;;;;6071461;23;20026;-86
2023/10/26 13:51:37;;;;;;;5.88;2.67;;;12.10;99.10;;;;;;6024818;23;20022;-83
2023/10/26 13:54:04;;;;;;;7.75;3.60;;;12.00;99.10;;;;;;6095162;23;20037;-81
2023/10/26 13:56:33;;;;;;;7.47;3.88;;;12.10;99.10;;;;;;6095517;23;20026;-81
2023/10/26 13:59:00;;;;;;;6.30;3.17;;;12.00;99.10;;;;;;6119598;23;20451;-83
2023/10/26 14:01:30;;;;;;;7.07;3.58;;;12.00;99.10;;;;;;6095268;23;20412;-84
2023/10/26 14:03:58;;;;;;;7.85;3.88;;;12.00;99.10;;;;;;6119983;23;20476;-84
2023/10/26 14:06:28;;;;;;;7.82;3.97;;;12.10;99.20;;;;;;6073697;23;20045;-85
2023/10/26 14:08:58;;;;;;;6.82;3.55;;;12.10;99.10;;;;;;6119804;23;20023;-84
2023/10/26 14:11:29;;;;;;;7.55;3.72;;;12.10;99.10;;;;;;6119748;23;20029;-85
2023/10/26 14:13:57;;;;;;;6.88;3.40;;;12.10;99.10;;;;;;6095812;23;20030;-85
2023/10/26 14:16:25;;;;;;;6.28;3.60;;;12.10;99.10;;;;;;6095242;23;20045;-82
2023/10/26 14:19:06;;;;;;;6.97;3.73;;;12.10;99.00;;;;;;6050018;23;20061;-85
2023/10/26 14:21:35;;;;;;;6.80;3.47;;;12.10;99.10;;;;;;6049883;23;20027;-81
2023/10/26 14:24:03;;;;;;;6.65;2.95;;;12.10;99.10;;;;;;6096371;23;20449;-84
2023/10/26 14:26:30;;;;;;;6.63;3.03;;;12.20;99.00;;;;;;6094948;23;20026;-83
2023/10/26 14:28:57;;;;;;;8.35;3.85;;;12.20;99.00;;;;;;6071201;23;20026;-82
2023/10/26 14:31:24;;;;;;;7.57;3.70;;;12.20;98.90;;;;;;6047520;23;20029;-82
2023/10/26 14:33:51;;;;;;;8.30;3.63;;;12.30;98.90;;;;;;6095056;23;20424;-83
2023/10/26 14:36:20;;;;;;;7.25;3.42;;;12.30;99.20;;;;;;6072116;23;20034;-82
2023/10/26 14:38:50;;;;;;;5.80;3.15;;;12.30;98.90;;;;;;6071349;23;20018;-83
2023/10/26 14:41:17;;;;;;;7.53;3.63;;;12.40;98.90;;;;;;6073636;23;20189;-81
2023/10/26 14:43:44;;;;;;;7.03;3.20;;;12.40;98.80;;;;;;6095811;23;20029;-82
2023/10/26 14:46:14;;;;;;;6.20;3.28;;;12.50;98.80;;;;;;6049515;23;20357;-81
2023/10/26 14:48:41;;;;;;;6.40;3.38;;;12.60;98.70;;;;;;6095569;23;20097;-81
2023/10/26 14:51:08;;;;;;;6.40;3.33;;;12.60;98.60;;;;;;6095760;23;20026;-84
2023/10/26 14:53:35;;;;;;;6.65;3.40;;;12.60;98.60;;;;;;6024087;23;20431;-83
2023/10/26 14:56:04;;;;;;;6.95;3.50;;;12.60;98.60;;;;;;6096596;23;20469;-83
2023/10/26 14:58:31;;;;;;;6.25;3.20;;;12.60;98.60;;;;;;6096760;23;20022;-82
2023/10/26 15:00:59;;;;;;;7.30;3.90;;;12.50;98.70;;;;;;6073034;23;20022;-86